Time;durP1;ratioP1;P1;durP2;ratioP2;P2;SDS_P1;SDS_P2;PMS_P1;PMS_P2;Temp;Humidity;BMP_temperature;BMP_pressure;BME280_temperature;BME280_humidity;BME280_pressure;Samples;Min_cycle;Max_cycle;Signal;HPM_P1;HPM_P2
2021/12/26 00:01:35;;;;;;;15.17;8.23;;;-9.00;99.90;-9.90;100286.00;;;;5056888;27;87668;-67
2021/12/26 00:04:03;;;;;;;10.23;6.73;;;-9.00;99.90;-9.90;100301.00;;;;5038519;27;88406;-66
2021/12/26 00:06:28;;;;;;;12.83;7.60;;;-9.10;99.90;-9.90;100296.00;;;;5039568;27;88023;-67
2021/12/26 00:08:58;;;;;;;13.73;8.93;;;-9.10;99.90;-9.80;100298.00;;;;5039396;27;87758;-66
2021/12/26 00:11:24;;;;;;;11.53;7.83;;;-9.10;99.90;-9.90;100289.00;;;;5039888;27;87872;-66
2021/12/26 00:13:52;;;;;;;14.10;8.70;;;-9.00;99.90;-9.90;100300.00;;;;5030118;27;87579;-67
2021/12/26 00:16:18;;;;;;;11.93;7.37;;;-9.20;99.90;-9.90;100294.00;;;;5039642;27;87799;-66
2021/12/26 00:18:46;;;;;;;10.87;7.93;;;-9.20;99.90;-10.00;100298.00;;;;5039315;27;87952;-66
2021/12/26 00:21:17;;;;;;;12.47;8.33;;;-9.20;99.90;-10.00;100301.00;;;;5047200;27;87511;-67
2021/12/26 00:23:43;;;;;;;13.13;7.33;;;-9.30;99.90;-10.10;100288.00;;;;5055443;27;89187;-66
2021/12/26 00:26:09;;;;;;;12.97;8.70;;;-8.60;99.90;-10.10;100295.00;;;;5039349;27;88869;-66
2021/12/26 00:28:35;;;;;;;13.47;7.40;;;-9.30;99.90;-10.20;100294.00;;;;5038199;27;110581;-67
2021/12/26 00:31:02;;;;;;;12.37;7.53;;;-9.40;99.90;-10.10;100295.00;;;;5039615;27;87805;-67
2021/12/26 00:33:27;;;;;;;14.67;8.10;;;-9.30;99.90;-10.00;100288.00;;;;5038236;27;88770;-67
2021/12/26 00:35:53;;;;;;;12.87;7.73;;;-9.30;99.90;-10.00;100284.00;;;;5045246;27;117483;-67
2021/12/26 00:38:19;;;;;;;13.00;7.47;;;-9.20;99.90;-10.00;100289.00;;;;5031843;27;87933;-66
2021/12/26 00:40:46;;;;;;;9.10;7.27;;;-9.30;99.90;-10.10;100279.00;;;;5045848;27;86817;-66
2021/12/26 00:43:12;;;;;;;12.73;7.70;;;-9.40;99.90;-10.20;100288.00;;;;5056422;27;98194;-67
2021/12/26 00:45:39;;;;;;;17.50;7.87;;;-9.30;99.90;-10.30;100293.00;;;;5056072;27;117513;-67
2021/12/26 00:48:07;;;;;;;11.47;7.60;;;-9.50;99.90;-10.40;100289.00;;;;5058601;27;88723;-67
2021/12/26 00:50:36;;;;;;;10.40;7.40;;;-9.50;99.90;-10.40;100286.00;;;;5039079;27;87812;-67
2021/12/26 00:53:02;;;;;;;13.00;7.70;;;-9.60;99.90;-10.40;100289.00;;;;5037705;27;89484;-67
2021/12/26 00:55:28;;;;;;;14.47;7.57;;;-8.70;99.90;-10.40;100298.00;;;;5051471;27;90798;-67
2021/12/26 00:57:54;;;;;;;10.20;5.83;;;-9.60;99.90;-10.50;100286.00;;;;5038351;27;87864;-67
2021/12/26 01:00:25;;;;;;;12.67;6.20;;;-9.70;99.90;-10.50;100287.00;;;;5053961;27;94588;-67
2021/12/26 01:02:52;;;;;;;10.87;6.30;;;-10.40;99.90;-10.50;100281.00;;;;5058006;27;106634;-67
2021/12/26 01:05:22;;;;;;;11.07;7.20;;;-8.70;99.90;-10.50;100271.00;;;;5038839;27;100208;-67
2021/12/26 01:10:22;;;;;;;13.13;7.63;;;-9.60;99.90;-10.50;100288.00;;;;5038347;27;87703;-67
2021/12/26 01:12:50;;;;;;;13.13;7.20;;;-9.80;99.90;-10.50;100275.00;;;;5035752;27;88811;-67
2021/12/26 01:15:19;;;;;;;13.93;8.10;;;-9.70;99.90;-10.50;100275.00;;;;5053606;27;88154;-68
2021/12/26 01:17:45;;;;;;;16.17;7.27;;;-9.70;99.90;-10.50;100266.00;;;;5038861;27;87824;-67
2021/12/26 01:20:45;;;;;;;13.83;7.33;;;-9.70;99.90;-10.50;100264.00;;;;5057665;27;88030;-67
2021/12/26 01:23:12;;;;;;;11.40;6.23;;;-9.70;99.90;-10.40;100263.00;;;;5058350;27;87711;-67
2021/12/26 01:25:38;;;;;;;13.40;6.93;;;-9.60;99.90;-10.30;100261.00;;;;5057773;27;88441;-67
2021/12/26 01:28:05;;;;;;;11.77;6.97;;;-9.60;99.90;-10.20;100277.00;;;;5057913;27;87952;-67
2021/12/26 01:30:32;;;;;;;13.53;7.43;;;-9.50;99.90;-10.30;100253.00;;;;5059487;27;87101;-67
2021/12/26 01:32:58;;;;;;;10.70;6.33;;;-9.40;99.90;-10.30;100266.00;;;;5057964;27;88238;-67
2021/12/26 01:35:24;;;;;;;10.53;6.90;;;-9.50;99.90;-10.20;100274.00;;;;5045131;27;89200;-67
2021/12/26 01:37:49;;;;;;;13.93;7.77;;;-9.40;99.90;-10.20;100265.00;;;;5055529;27;110802;-68
2021/12/26 01:40:16;;;;;;;13.80;7.00;;;-9.40;99.90;-10.20;100269.00;;;;5037969;27;87589;-67
2021/12/26 01:42:42;;;;;;;12.17;6.93;;;-9.40;99.90;-10.20;100273.00;;;;5037427;27;88070;-68
2021/12/26 01:45:10;;;;;;;14.93;8.27;;;-9.30;99.90;-10.20;100273.00;;;;5036939;27;88400;-68
2021/12/26 01:47:39;;;;;;;14.17;7.93;;;-8.90;99.90;-10.20;100277.00;;;;5050101;27;87950;-68
2021/12/26 01:50:08;;;;;;;10.33;8.23;;;-9.40;99.90;-10.20;100267.00;;;;5057635;27;87636;-68
2021/12/26 01:52:34;;;;;;;13.70;8.73;;;-9.40;99.90;-10.20;100270.00;;;;5033258;27;88674;-68
2021/12/26 01:55:20;;;;;;;14.63;8.33;;;-9.50;99.90;-10.30;100275.00;;;;5052381;27;91475;-68
2021/12/26 01:57:46;;;;;;;11.63;6.73;;;-9.10;99.90;-10.30;100269.00;;;;5054941;27;87530;-67
2021/12/26 02:00:12;;;;;;;15.00;8.70;;;-9.50;99.90;-10.30;100268.00;;;;5065825;27;87904;-68
2021/12/26 02:02:38;;;;;;;13.47;8.00;;;-9.60;99.90;-10.40;100275.00;;;;5050553;27;106352;-68
2021/12/26 02:05:04;;;;;;;11.23;7.43;;;-9.50;99.90;-10.40;100278.00;;;;5036038;27;119711;-68
2021/12/26 02:07:29;;;;;;;13.43;7.37;;;-9.70;99.90;-10.40;100269.00;;;;5036803;27;92572;-68
2021/12/26 02:09:55;;;;;;;15.50;8.43;;;-9.70;99.90;-10.40;100254.00;;;;5036698;27;107752;-68
2021/12/26 02:12:21;;;;;;;15.73;8.40;;;-9.60;99.90;-10.40;100276.00;;;;5035678;27;116808;-68
2021/12/26 02:14:47;;;;;;;12.70;7.17;;;-9.60;99.90;-10.40;100265.00;;;;5041113;27;119202;-68
2021/12/26 02:17:16;;;;;;;12.10;7.60;;;-9.70;99.90;-10.30;100248.00;;;;5056614;27;109669;-68
2021/12/26 02:19:43;;;;;;;14.10;7.30;;;-9.50;99.90;-10.30;100257.00;;;;5045247;27;96757;-68
2021/12/26 02:22:12;;;;;;;10.60;6.70;;;-9.70;99.90;-10.30;100255.00;;;;5037141;27;88056;-68
2021/12/26 02:27:33;;;;;;;15.20;8.47;;;-9.60;99.90;-10.40;100271.00;;;;5054484;27;88753;-68
2021/12/26 02:30:13;;;;;;;16.07;7.97;;;-9.50;99.90;-10.40;100274.00;;;;5057499;27;87812;-66
2021/12/26 02:32:41;;;;;;;18.13;8.63;;;-9.60;99.90;-10.50;100272.00;;;;5057604;27;87941;-66
2021/12/26 02:35:07;;;;;;;13.00;7.87;;;-9.50;99.90;-10.50;100262.00;;;;5036273;27;87861;-69
2021/12/26 02:37:33;;;;;;;13.47;8.60;;;-9.70;99.90;-10.50;100262.00;;;;5055883;27;93896;-69
2021/12/26 02:39:59;;;;;;;19.47;8.40;;;-9.80;99.90;-10.50;100257.00;;;;5037246;27;108155;-68
2021/12/26 02:42:25;;;;;;;11.47;7.47;;;-9.80;99.90;-10.50;100268.00;;;;5055683;27;98999;-67
2021/12/26 02:44:50;;;;;;;14.47;8.00;;;-9.80;99.90;-10.60;100255.00;;;;5043683;27;88268;-67
2021/12/26 02:47:43;;;;;;;13.60;7.73;;;-9.80;99.90;-10.70;100281.00;;;;5035206;27;111227;-67
2021/12/26 02:50:26;;;;;;;12.37;7.90;;;-9.70;99.90;-10.70;100270.00;;;;5051316;27;88700;-67
2021/12/26 02:52:55;;;;;;;12.17;6.97;;;-9.80;99.90;-10.70;100274.00;;;;5036474;27;90711;-67
2021/12/26 02:55:23;;;;;;;9.03;6.23;;;-9.80;99.90;-10.80;100271.00;;;;5056660;27;87969;-67
2021/12/26 02:58:03;;;;;;;11.03;7.37;;;-9.90;99.90;-10.90;100290.00;;;;5056985;27;87535;-67
2021/12/26 03:00:33;;;;;;;11.93;6.63;;;-10.00;99.90;-10.90;100280.00;;;;5057359;27;87810;-67
2021/12/26 03:03:02;;;;;;;14.93;7.27;;;-10.10;99.90;-10.90;100275.00;;;;5056117;27;105136;-67
2021/12/26 03:05:31;;;;;;;13.37;7.47;;;-10.10;99.90;-10.90;100285.00;;;;5044688;27;88071;-67
2021/12/26 03:07:57;;;;;;;14.40;7.57;;;-10.20;99.90;-11.00;100281.00;;;;5035837;27;87780;-67
2021/12/26 03:10:26;;;;;;;13.53;7.40;;;-10.20;99.90;-11.00;100289.00;;;;5038612;27;96287;-67
2021/12/26 03:12:55;;;;;;;9.67;6.90;;;-10.30;99.90;-11.00;100281.00;;;;5058994;27;89060;-67
2021/12/26 03:15:22;;;;;;;10.97;7.10;;;-10.30;99.90;-11.00;100281.00;;;;5056498;27;87883;-67
2021/12/26 03:17:48;;;;;;;9.17;5.90;;;-9.50;99.90;-11.00;100278.00;;;;5036974;27;98606;-67
2021/12/26 03:20:20;;;;;;;14.67;6.63;;;-10.20;99.90;-11.00;100282.00;;;;5055482;27;108074;-67
2021/12/26 03:22:47;;;;;;;12.27;7.27;;;-10.20;99.90;-10.90;100279.00;;;;5054250;27;105234;-67
2021/12/26 03:25:17;;;;;;;13.40;5.80;;;-10.20;99.90;-10.90;100284.00;;;;5056605;27;88849;-69
2021/12/26 03:27:43;;;;;;;11.47;7.27;;;-10.10;99.90;-10.90;100268.00;;;;5056888;27;87684;-68
2021/12/26 03:30:13;;;;;;;12.10;7.40;;;-10.10;99.90;-10.90;100274.00;;;;5055824;27;94003;-68
2021/12/26 03:32:40;;;;;;;9.93;7.07;;;-10.10;99.90;-10.80;100288.00;;;;5055990;27;92729;-68
2021/12/26 03:35:07;;;;;;;13.23;8.03;;;-10.00;99.90;-10.80;100281.00;;;;5053919;27;100149;-68
2021/12/26 03:37:33;;;;;;;9.17;6.63;;;-10.00;99.90;-10.70;100280.00;;;;5036114;27;95265;-68
2021/12/26 03:39:59;;;;;;;10.70;6.27;;;-10.00;99.90;-10.70;100264.00;;;;5040506;27;88028;-68
2021/12/26 03:42:25;;;;;;;10.70;7.17;;;-9.90;99.90;-10.70;100290.00;;;;5035339;27;119318;-68
2021/12/26 03:44:52;;;;;;;12.53;7.47;;;-9.80;99.90;-10.60;100277.00;;;;5036298;27;88993;-68
2021/12/26 03:47:18;;;;;;;13.03;7.63;;;-9.80;99.90;-10.60;100273.00;;;;5035046;27;93129;-68
2021/12/26 03:49:44;;;;;;;10.80;7.70;;;-9.80;99.90;-10.60;100275.00;;;;5048197;27;87876;-68
2021/12/26 03:52:10;;;;;;;11.00;6.73;;;-9.80;99.90;-10.50;100268.00;;;;5056281;27;87757;-68
2021/12/26 03:54:36;;;;;;;15.67;7.17;;;-9.70;99.90;-10.50;100288.00;;;;5044012;27;117591;-68
2021/12/26 03:57:02;;;;;;;14.40;8.10;;;-9.70;99.90;-10.50;100274.00;;;;5033499;27;88643;-68
2021/12/26 03:59:28;;;;;;;17.30;7.93;;;-9.80;99.90;-10.50;100283.00;;;;5027238;27;87921;-68
2021/12/26 04:01:55;;;;;;;16.97;8.53;;;-9.80;99.90;-10.50;100268.00;;;;5035974;27;88551;-69
2021/12/26 04:04:21;;;;;;;10.53;5.77;;;-9.70;99.90;-10.50;100271.00;;;;5035132;27;88731;-69
2021/12/26 04:06:47;;;;;;;12.83;6.77;;;-8.70;99.90;-10.50;100275.00;;;;5041166;27;88569;-69
2021/12/26 04:09:13;;;;;;;16.70;8.60;;;-9.80;99.90;-10.50;100266.00;;;;5035879;27;88065;-68
2021/12/26 04:11:43;;;;;;;14.83;7.70;;;-9.70;99.90;-10.50;100275.00;;;;5034976;27;105004;-69
2021/12/26 04:14:10;;;;;;;13.87;7.53;;;-9.80;99.90;-10.50;100272.00;;;;5035216;27;89009;-69
2021/12/26 04:16:35;;;;;;;13.90;7.40;;;-9.60;99.90;-10.50;100282.00;;;;5035514;27;89481;-69
2021/12/26 04:19:02;;;;;;;15.57;8.87;;;-9.80;99.90;-10.50;100292.00;;;;5041191;27;87918;-68
2021/12/26 04:21:27;;;;;;;11.40;7.50;;;-9.70;99.90;-10.50;100279.00;;;;5056499;27;88736;-69
2021/12/26 04:23:53;;;;;;;17.47;8.53;;;-9.70;99.90;-10.50;100280.00;;;;5054062;27;118205;-69
2021/12/26 04:26:19;;;;;;;15.80;8.67;;;-9.80;99.90;-10.50;100285.00;;;;5055944;27;87719;-69
2021/12/26 04:28:45;;;;;;;11.33;7.17;;;-9.50;99.90;-10.50;100281.00;;;;5049775;27;87789;-69
2021/12/26 04:31:11;;;;;;;11.90;7.30;;;-9.70;99.90;-10.50;100288.00;;;;5034683;27;89716;-69
2021/12/26 04:33:36;;;;;;;12.80;7.90;;;-9.70;99.90;-10.50;100287.00;;;;5016209;27;88719;-68
2021/12/26 04:36:02;;;;;;;15.50;8.33;;;-9.60;99.90;-10.50;100296.00;;;;5032322;27;105669;-69
2021/12/26 04:38:28;;;;;;;14.13;7.03;;;-9.60;99.90;-10.50;100301.00;;;;5053521;27;87914;-69
2021/12/26 04:40:54;;;;;;;13.43;9.10;;;-9.70;99.90;-10.50;100277.00;;;;5033138;27;97664;-69
2021/12/26 04:43:21;;;;;;;13.50;7.87;;;-8.60;99.90;-10.50;100277.00;;;;5036135;27;88018;-69
2021/12/26 04:45:47;;;;;;;11.53;8.50;;;-9.70;99.90;-10.50;100273.00;;;;5035324;27;87835;-68
2021/12/26 04:48:14;;;;;;;16.70;8.83;;;-9.70;99.90;-10.50;100269.00;;;;5035475;27;87180;-69
2021/12/26 04:50:40;;;;;;;14.57;8.23;;;-9.70;99.90;-10.50;100271.00;;;;5037390;27;88979;-69
2021/12/26 04:53:06;;;;;;;15.33;8.03;;;-9.80;99.90;-10.50;100268.00;;;;5037283;27;118242;-69
2021/12/26 04:55:31;;;;;;;16.20;7.77;;;-9.80;99.90;-10.60;100261.00;;;;5037468;27;100307;-69
2021/12/26 04:57:58;;;;;;;11.93;7.77;;;-9.60;99.90;-10.60;100257.00;;;;5051973;27;108061;-68
2021/12/26 05:00:28;;;;;;;13.00;7.73;;;-9.80;99.90;-10.60;100257.00;;;;5058555;27;88183;-68
2021/12/26 05:02:56;;;;;;;9.53;7.37;;;-9.90;99.90;-10.60;100267.00;;;;5051055;27;87828;-69
2021/12/26 05:05:26;;;;;;;13.73;8.60;;;-9.90;99.90;-10.70;100267.00;;;;5038439;27;87656;-69
2021/12/26 05:07:53;;;;;;;12.83;8.03;;;-9.90;99.90;-10.70;100272.00;;;;5038475;27;87754;-69
2021/12/26 05:10:19;;;;;;;17.77;9.10;;;-9.90;99.90;-10.70;100268.00;;;;5038256;27;88176;-69
2021/12/26 05:12:46;;;;;;;16.97;8.93;;;-9.90;99.90;-10.70;100254.00;;;;5038702;27;87298;-69
2021/12/26 05:15:13;;;;;;;15.97;8.17;;;-9.80;99.90;-10.70;100267.00;;;;5035398;27;88005;-69
2021/12/26 05:17:40;;;;;;;15.33;8.90;;;-10.00;99.90;-10.70;100252.00;;;;5058478;27;92481;-68
2021/12/26 05:20:09;;;;;;;15.63;8.67;;;-10.00;99.90;-10.80;100260.00;;;;5041384;27;90321;-69
2021/12/26 05:22:34;;;;;;;18.47;8.13;;;-10.10;99.90;-10.80;100252.00;;;;5019381;27;96086;-69
2021/12/26 05:25:00;;;;;;;13.90;8.80;;;-10.00;99.90;-10.80;100255.00;;;;5050253;27;107759;-69
2021/12/26 05:27:26;;;;;;;15.53;8.23;;;-10.10;99.90;-10.80;100247.00;;;;5058039;27;87865;-69
2021/12/26 05:29:51;;;;;;;12.00;7.77;;;-10.00;99.90;-10.80;100267.00;;;;5057229;27;116510;-69
2021/12/26 05:32:17;;;;;;;20.83;8.93;;;-10.10;99.90;-10.80;100260.00;;;;5037939;27;116523;-69
2021/12/26 05:34:43;;;;;;;14.80;9.80;;;-10.10;99.90;-10.90;100235.00;;;;5038136;27;110879;-69
2021/12/26 05:37:08;;;;;;;14.03;8.50;;;-10.00;99.90;-10.80;100246.00;;;;5037015;27;108529;-69
2021/12/26 05:39:34;;;;;;;14.93;7.53;;;-10.10;99.90;-10.90;100257.00;;;;5037673;27;98956;-69
2021/12/26 05:42:00;;;;;;;13.77;8.63;;;-10.00;99.90;-10.90;100264.00;;;;5036581;27;106316;-69
2021/12/26 05:44:26;;;;;;;15.60;7.80;;;-10.20;99.90;-10.90;100256.00;;;;5037559;27;111315;-69
2021/12/26 05:46:51;;;;;;;13.20;7.27;;;-10.10;99.90;-11.00;100262.00;;;;5036524;27;108279;-70
2021/12/26 05:49:17;;;;;;;14.23;7.30;;;-10.10;99.90;-11.00;100248.00;;;;5036131;27;115447;-69
2021/12/26 05:51:43;;;;;;;15.90;7.97;;;-10.10;99.90;-11.00;100256.00;;;;5036779;27;117751;-70
2021/12/26 05:54:08;;;;;;;14.20;8.00;;;-10.20;99.90;-11.00;100247.00;;;;5037275;27;109610;-69
2021/12/26 05:56:34;;;;;;;14.40;8.50;;;-10.10;99.90;-11.00;100253.00;;;;5036474;27;109600;-68
2021/12/26 05:59:00;;;;;;;12.53;7.87;;;-10.30;99.90;-11.00;100252.00;;;;5051070;27;118613;-69
2021/12/26 06:01:26;;;;;;;16.07;9.10;;;-10.20;99.90;-11.00;100251.00;;;;5054699;27;116885;-69
2021/12/26 06:03:51;;;;;;;15.13;7.80;;;-10.20;99.90;-11.00;100268.00;;;;5056746;27;110243;-69
2021/12/26 06:06:17;;;;;;;15.70;8.20;;;-9.60;99.90;-11.10;100252.00;;;;5055168;27;108859;-68
2021/12/26 06:08:43;;;;;;;16.13;9.03;;;-10.20;99.90;-11.10;100264.00;;;;5055900;27;118031;-69
2021/12/26 06:11:09;;;;;;;14.43;8.53;;;-10.30;99.90;-11.20;100263.00;;;;5055934;27;119029;-69
2021/12/26 06:13:34;;;;;;;12.57;8.40;;;-10.40;99.90;-11.20;100258.00;;;;5056668;27;108867;-69
2021/12/26 06:16:00;;;;;;;15.37;8.67;;;-10.30;99.90;-11.20;100264.00;;;;5056883;27;109151;-69
2021/12/26 06:18:26;;;;;;;12.27;8.27;;;-10.30;99.90;-11.20;100269.00;;;;5054685;27;117100;-69
2021/12/26 06:20:52;;;;;;;13.00;8.37;;;-10.50;99.90;-11.20;100263.00;;;;5045884;27;87723;-69
2021/12/26 06:23:18;;;;;;;20.13;9.47;;;-10.20;99.90;-11.20;100250.00;;;;5037534;27;109960;-70
2021/12/26 06:25:44;;;;;;;16.03;10.20;;;-10.30;99.90;-11.20;100261.00;;;;5045345;27;108308;-71
2021/12/26 06:28:09;;;;;;;14.97;8.57;;;-10.30;99.90;-11.20;100261.00;;;;5017515;27;90936;-69
2021/12/26 06:30:36;;;;;;;15.90;9.17;;;-10.40;99.90;-11.20;100245.00;;;;5045473;27;88589;-69
2021/12/26 06:33:02;;;;;;;14.37;9.17;;;-9.60;99.90;-11.30;100245.00;;;;5037148;27;89040;-68
2021/12/26 06:35:27;;;;;;;17.67;8.93;;;-10.50;99.90;-11.30;100246.00;;;;5036824;27;87994;-69
2021/12/26 06:37:53;;;;;;;11.27;7.77;;;-10.40;99.90;-11.30;100254.00;;;;5017223;27;92701;-69
2021/12/26 06:40:19;;;;;;;16.80;8.93;;;-10.60;99.90;-11.30;100242.00;;;;5035827;27;97276;-69
2021/12/26 06:42:46;;;;;;;10.20;7.33;;;-10.50;99.90;-11.30;100253.00;;;;5047891;27;87871;-69
2021/12/26 06:45:16;;;;;;;15.27;8.90;;;-10.50;99.90;-11.30;100247.00;;;;5036724;27;87952;-69
2021/12/26 06:47:48;;;;;;;17.60;8.53;;;-10.60;99.90;-11.40;100240.00;;;;5000411;27;90520;-68
2021/12/26 06:50:15;;;;;;;21.90;9.40;;;-10.50;99.90;-11.30;100243.00;;;;5036578;27;87987;-70
2021/12/26 06:52:42;;;;;;;18.77;9.40;;;-10.50;99.90;-11.40;100253.00;;;;5036580;27;87815;-68
2021/12/26 06:55:10;;;;;;;13.53;8.60;;;-10.50;99.90;-11.30;100264.00;;;;5022595;27;87681;-69
2021/12/26 06:57:37;;;;;;;14.57;9.03;;;-10.60;99.90;-11.40;100250.00;;;;5035318;27;88872;-69
2021/12/26 07:00:09;;;;;;;13.27;8.70;;;-10.60;99.90;-11.40;100246.00;;;;5050581;27;89035;-69
2021/12/26 07:02:35;;;;;;;16.57;9.63;;;-10.60;99.90;-11.40;100242.00;;;;5056899;27;87745;-69
2021/12/26 07:05:02;;;;;;;14.83;8.20;;;-10.60;99.90;-11.40;100240.00;;;;5021900;27;108649;-69
2021/12/26 07:07:28;;;;;;;17.53;8.83;;;-10.40;99.90;-11.40;100253.00;;;;5035963;27;88998;-69
2021/12/26 07:09:54;;;;;;;18.10;9.93;;;-10.50;99.90;-11.40;100268.00;;;;5050002;27;88714;-69
2021/12/26 07:12:20;;;;;;;13.17;9.97;;;-10.60;99.90;-11.40;100270.00;;;;5055829;27;87764;-69
2021/12/26 07:14:45;;;;;;;18.50;11.57;;;-10.60;99.90;-11.40;100270.00;;;;5055929;27;87077;-68
2021/12/26 07:17:11;;;;;;;22.60;11.17;;;-10.60;99.90;-11.50;100270.00;;;;5054372;27;116705;-69
2021/12/26 07:19:38;;;;;;;14.20;9.73;;;-10.20;99.90;-11.40;100280.00;;;;5040111;27;89059;-68
2021/12/26 07:22:04;;;;;;;15.83;10.40;;;-10.60;99.90;-11.40;100286.00;;;;5042300;27;88605;-69
2021/12/26 07:24:31;;;;;;;18.87;9.60;;;-10.60;99.90;-11.40;100288.00;;;;5051043;27;105496;-69
2021/12/26 07:26:57;;;;;;;15.70;10.13;;;-10.60;99.90;-11.30;100287.00;;;;5052472;27;105713;-69
2021/12/26 07:29:22;;;;;;;27.57;12.27;;;-10.50;99.90;-11.20;100297.00;;;;5028290;27;118121;-69
2021/12/26 07:31:48;;;;;;;15.73;10.97;;;-10.50;99.90;-11.00;100297.00;;;;5043270;27;113044;-69
2021/12/26 07:34:14;;;;;;;21.10;12.47;;;-10.30;99.90;-10.90;100302.00;;;;5028802;27;109044;-69
2021/12/26 07:36:40;;;;;;;33.20;17.63;;;-10.20;99.90;-10.80;100298.00;;;;5048119;27;100472;-69
2021/12/26 07:39:06;;;;;;;18.63;12.63;;;-10.10;99.90;-10.50;100302.00;;;;5045562;27;108821;-69
2021/12/26 07:41:31;;;;;;;24.87;12.77;;;-10.00;99.90;-10.30;100303.00;;;;5051851;27;111994;-70
2021/12/26 07:43:57;;;;;;;19.70;12.97;;;-9.60;99.90;-10.00;100298.00;;;;5046556;27;108595;-69
2021/12/26 07:46:23;;;;;;;20.33;13.60;;;-9.40;99.90;-9.70;100299.00;;;;5047933;27;108781;-69
2021/12/26 07:48:49;;;;;;;23.87;12.30;;;-8.90;99.90;-9.40;100305.00;;;;5042177;27;88886;-69
2021/12/26 07:51:15;;;;;;;20.77;12.90;;;-8.70;99.90;-9.10;100306.00;;;;5033755;27;87859;-69
2021/12/26 07:53:40;;;;;;;20.80;11.97;;;-8.40;99.90;-8.80;100295.00;;;;5046850;27;87997;-69
2021/12/26 07:56:06;;;;;;;28.60;20.00;;;-8.20;99.90;-8.50;100305.00;;;;5050619;27;89003;-68
2021/12/26 07:58:33;;;;;;;134.30;72.73;;;-7.90;99.90;-8.20;100297.00;;;;5041564;27;112858;-68
2021/12/26 08:00:58;;;;;;;51.47;31.80;;;-7.60;99.90;-7.80;100288.00;;;;5050514;27;88051;-67
2021/12/26 08:03:24;;;;;;;22.93;15.90;;;-7.30;99.90;-7.50;100286.00;;;;5031573;27;86949;-68
2021/12/26 08:05:50;;;;;;;45.83;31.23;;;-7.00;99.90;-7.10;100288.00;;;;5007156;27;118381;-67
2021/12/26 08:08:16;;;;;;;31.17;22.90;;;-6.60;99.90;-6.80;100294.00;;;;5050377;27;117575;-67
2021/12/26 08:10:41;;;;;;;19.60;12.20;;;-5.60;99.90;-6.60;100288.00;;;;5051172;27;88651;-66
2021/12/26 08:13:07;;;;;;;14.50;11.10;;;-6.00;99.90;-6.30;100306.00;;;;5050109;27;108189;-66
2021/12/26 08:15:33;;;;;;;15.27;11.10;;;-5.80;99.90;-6.00;100287.00;;;;5051554;27;101176;-67
2021/12/26 08:17:59;;;;;;;12.73;8.57;;;-5.50;99.90;-5.80;100304.00;;;;5050060;27;116971;-66
2021/12/26 08:20:24;;;;;;;15.37;11.43;;;-5.30;99.90;-5.50;100294.00;;;;5052306;27;112712;-66
2021/12/26 08:22:50;;;;;;;12.17;7.97;;;-4.90;99.90;-5.40;100306.00;;;;5050533;27;87875;-66
2021/12/26 08:25:17;;;;;;;11.67;8.03;;;-4.80;99.90;-5.20;100311.00;;;;5050984;27;91843;-66
2021/12/26 08:27:42;;;;;;;14.03;7.17;;;-4.60;99.90;-5.10;100306.00;;;;5056278;27;87822;-65
2021/12/26 08:30:09;;;;;;;20.23;12.67;;;-4.60;99.90;-5.00;100311.00;;;;5044672;27;110629;-65
2021/12/26 08:32:38;;;;;;;109.77;56.43;;;-4.40;99.90;-4.80;100310.00;;;;5054331;27;87812;-66
2021/12/26 08:35:07;;;;;;;15.13;9.73;;;-4.30;99.90;-4.70;100306.00;;;;5046928;27;89937;-65
2021/12/26 08:37:33;;;;;;;11.63;8.07;;;-4.20;99.90;-4.60;100296.00;;;;5055648;27;89897;-65
2021/12/26 08:39:59;;;;;;;13.43;6.83;;;-4.10;99.90;-4.60;100312.00;;;;5056096;27;87772;-66
2021/12/26 08:42:25;;;;;;;91.87;48.53;;;-4.10;99.90;-4.50;100303.00;;;;5051156;27;109152;-66
2021/12/26 08:44:52;;;;;;;13.67;8.40;;;-4.00;99.90;-4.50;100303.00;;;;5044707;27;118158;-66
2021/12/26 08:47:19;;;;;;;10.93;7.33;;;-3.90;99.90;-4.50;100307.00;;;;5047114;27;88701;-65
2021/12/26 08:49:44;;;;;;;10.97;7.20;;;-4.00;99.90;-4.50;100303.00;;;;5056089;27;87740;-65
2021/12/26 08:52:10;;;;;;;18.33;14.53;;;-4.00;99.90;-4.40;100308.00;;;;5052241;27;109785;-65
2021/12/26 08:54:38;;;;;;;12.37;8.77;;;-3.90;99.90;-4.30;100302.00;;;;5039747;27;88471;-65
2021/12/26 08:57:06;;;;;;;16.40;12.07;;;-3.90;99.90;-4.20;100302.00;;;;5055363;27;87835;-65
2021/12/26 08:59:32;;;;;;;18.97;11.47;;;-3.80;99.90;-4.00;100300.00;;;;5053371;27;88627;-65
2021/12/26 09:02:02;;;;;;;10.37;8.20;;;-3.60;99.90;-3.80;100304.00;;;;5049748;27;87761;-65
2021/12/26 09:04:29;;;;;;;11.83;6.97;;;-3.40;99.90;-3.70;100309.00;;;;5045450;27;89064;-65
2021/12/26 09:06:56;;;;;;;8.57;7.30;;;-3.30;99.90;-3.50;100302.00;;;;5055330;27;88297;-66
2021/12/26 09:09:21;;;;;;;14.90;7.30;;;-3.10;99.90;-3.20;100310.00;;;;5043724;27;87655;-66
2021/12/26 09:11:47;;;;;;;11.67;8.07;;;-2.90;99.90;-3.10;100317.00;;;;5054741;27;108728;-66
2021/12/26 09:14:13;;;;;;;11.27;6.97;;;-2.70;99.90;-2.90;100318.00;;;;5046723;27;102949;-67
2021/12/26 09:16:39;;;;;;;9.80;6.37;;;-2.50;99.90;-2.80;100311.00;;;;5034024;27;117648;-66
2021/12/26 09:19:06;;;;;;;9.50;5.20;;;-2.40;99.90;-2.70;100313.00;;;;5049788;27;105717;-67
2021/12/26 09:21:31;;;;;;;11.20;6.03;;;-2.40;99.90;-2.70;100317.00;;;;5052493;27;87957;-66
2021/12/26 09:23:57;;;;;;;15.47;8.87;;;-2.30;99.90;-2.60;100307.00;;;;5040708;27;96218;-66
2021/12/26 09:26:23;;;;;;;10.67;6.97;;;-2.10;99.90;-2.30;100315.00;;;;5052766;27;118529;-66
2021/12/26 09:28:50;;;;;;;15.07;7.13;;;-2.00;99.90;-2.10;100323.00;;;;5047865;27;87639;-66
2021/12/26 09:31:16;;;;;;;11.17;6.83;;;-1.90;99.90;-1.90;100309.00;;;;5052245;27;87832;-66
2021/12/26 09:33:42;;;;;;;9.30;5.90;;;-1.60;99.90;-1.60;100314.00;;;;5054531;27;88299;-66
2021/12/26 09:36:08;;;;;;;9.57;6.63;;;-1.40;99.90;-1.50;100323.00;;;;5051376;27;88354;-66
2021/12/26 09:38:34;;;;;;;9.17;5.83;;;-1.40;99.90;-1.40;100326.00;;;;5051394;27;88102;-66
2021/12/26 09:40:59;;;;;;;11.93;6.60;;;-1.20;99.90;-1.40;100318.00;;;;5050898;27;109954;-64
2021/12/26 09:43:26;;;;;;;11.00;6.47;;;-1.00;99.90;-1.30;100308.00;;;;5042967;27;88192;-68
2021/12/26 09:45:52;;;;;;;8.57;4.77;;;-0.90;99.90;-1.10;100325.00;;;;5050803;27;88914;-68
2021/12/26 09:48:19;;;;;;;9.03;6.27;;;-0.80;99.90;-0.90;100317.00;;;;5051816;27;88834;-67
2021/12/26 09:50:46;;;;;;;10.97;6.00;;;-0.80;99.90;-0.70;100305.00;;;;5054890;27;87982;-67
2021/12/26 09:53:13;;;;;;;7.53;5.20;;;-0.60;99.90;-0.50;100313.00;;;;5043102;27;88806;-66
2021/12/26 09:55:38;;;;;;;8.03;6.33;;;-0.40;99.90;-0.40;100304.00;;;;5053262;27;105290;-66
2021/12/26 09:58:04;;;;;;;9.67;6.80;;;-0.10;99.90;-0.10;100297.00;;;;5044380;27;87777;-66
2021/12/26 10:00:37;;;;;;;8.30;5.87;;;0.00;99.90;0.10;100300.00;;;;5054760;27;87838;-65
2021/12/26 10:03:22;;;;;;;10.53;6.17;;;0.20;99.90;0.50;100306.00;;;;5054440;27;88095;-66
2021/12/26 10:06:17;;;;;;;8.37;5.80;;;0.50;99.90;0.80;100299.00;;;;5042922;27;88008;-66
2021/12/26 10:08:58;;;;;;;12.83;6.03;;;0.90;99.90;1.10;100302.00;;;;5045828;27;87829;-65
2021/12/26 10:11:40;;;;;;;9.20;5.60;;;1.10;99.90;1.40;100308.00;;;;5049350;27;87565;-66
2021/12/26 10:14:09;;;;;;;11.53;5.47;;;1.80;99.90;1.60;100304.00;;;;5029216;27;96410;-67
2021/12/26 10:17:04;;;;;;;19.23;13.90;;;1.70;99.90;1.80;100304.00;;;;5024042;27;88582;-65
2021/12/26 10:19:40;;;;;;;9.13;5.97;;;2.00;99.30;1.90;100307.00;;;;5024057;27;88061;-66
2021/12/26 10:22:10;;;;;;;8.50;5.77;;;2.80;99.90;2.10;100305.00;;;;5033699;27;87678;-66
2021/12/26 10:24:42;;;;;;;62.00;38.27;;;2.30;99.90;2.30;100295.00;;;;5028943;27;88501;-66
2021/12/26 10:27:15;;;;;;;342.00;181.50;;;2.50;99.60;2.50;100296.00;;;;5012778;27;87941;-66
2021/12/26 10:29:46;;;;;;;300.97;158.13;;;2.50;98.10;2.60;100292.00;;;;5032300;27;87711;-66
2021/12/26 10:32:20;;;;;;;96.30;47.87;;;2.80;95.70;2.60;100310.00;;;;5032219;27;87117;-65
2021/12/26 10:35:06;;;;;;;110.43;63.97;;;2.80;94.80;2.70;100296.00;;;;5026193;27;88878;-66
2021/12/26 10:37:40;;;;;;;50.83;37.57;;;2.80;94.70;2.70;100287.00;;;;5021330;27;97158;-66